sensor_id;sensor_type;location;lat;lon;timestamp;P1;durP1;ratioP1;P2;durP2;ratioP2
21810;SDS011;11067;48.788;9.208;2023-11-19T00:01:35;5.07;;;2.55;;
21810;SDS011;11067;48.788;9.208;2023-11-19T00:04:00;3.03;;;2.50;;
21810;SDS011;11067;48.788;9.208;2023-11-19T00:06:26;4.68;;;2.63;;
21810;SDS011;11067;48.788;9.208;2023-11-19T00:08:52;4.15;;;2.50;;
21810;SDS011;11067;48.788;9.208;2023-11-19T00:11:18;3.10;;;2.42;;
21810;SDS011;11067;48.788;9.208;2023-11-19T00:13:43;4.93;;;2.47;;
21810;SDS011;11067;48.788;9.208;2023-11-19T00:16:09;4.13;;;1.97;;
21810;SDS011;11067;48.788;9.208;2023-11-19T00:18:35;3.53;;;2.47;;
21810;SDS011;11067;48.788;9.208;2023-11-19T00:21:04;4.88;;;2.88;;
21810;SDS011;11067;48.788;9.208;2023-11-19T00:23:30;3.13;;;2.63;;
21810;SDS011;11067;48.788;9.208;2023-11-19T00:25:55;3.47;;;2.70;;
21810;SDS011;11067;48.788;9.208;2023-11-19T00:28:21;2.80;;;2.30;;
21810;SDS011;11067;48.788;9.208;2023-11-19T00:30:46;3.90;;;2.70;;
21810;SDS011;11067;48.788;9.208;2023-11-19T00:33:12;3.47;;;3.00;;
21810;SDS011;11067;48.788;9.208;2023-11-19T00:35:37;5.65;;;3.05;;
21810;SDS011;11067;48.788;9.208;2023-11-19T00:38:03;5.50;;;3.00;;
21810;SDS011;11067;48.788;9.208;2023-11-19T00:40:29;3.00;;;2.60;;
21810;SDS011;11067;48.788;9.208;2023-11-19T00:42:54;4.30;;;2.92;;
21810;SDS011;11067;48.788;9.208;2023-11-19T00:45:20;7.63;;;4.53;;
21810;SDS011;11067;48.788;9.208;2023-11-19T00:47:45;4.70;;;3.20;;
21810;SDS011;11067;48.788;9.208;2023-11-19T00:50:11;3.30;;;2.43;;
21810;SDS011;11067;48.788;9.208;2023-11-19T00:52:37;3.47;;;2.50;;
21810;SDS011;11067;48.788;9.208;2023-11-19T00:55:04;4.20;;;2.55;;
21810;SDS011;11067;48.788;9.208;2023-11-19T00:57:30;4.68;;;2.90;;
21810;SDS011;11067;48.788;9.208;2023-11-19T00:59:57;3.93;;;2.50;;
21810;SDS011;11067;48.788;9.208;2023-11-19T01:02:23;5.15;;;2.70;;
21810;SDS011;11067;48.788;9.208;2023-11-19T01:04:49;5.10;;;2.80;;
21810;SDS011;11067;48.788;9.208;2023-11-19T01:07:15;5.90;;;2.80;;
21810;SDS011;11067;48.788;9.208;2023-11-19T01:09:41;3.97;;;3.03;;
21810;SDS011;11067;48.788;9.208;2023-11-19T01:12:07;6.97;;;3.00;;
21810;SDS011;11067;48.788;9.208;2023-11-19T01:14:35;5.27;;;2.87;;
21810;SDS011;11067;48.788;9.208;2023-11-19T01:17:01;2.77;;;2.40;;
21810;SDS011;11067;48.788;9.208;2023-11-19T01:19:26;4.40;;;2.57;;
21810;SDS011;11067;48.788;9.208;2023-11-19T01:21:53;3.10;;;2.30;;
21810;SDS011;11067;48.788;9.208;2023-11-19T01:24:19;4.22;;;2.65;;
21810;SDS011;11067;48.788;9.208;2023-11-19T01:26:45;4.13;;;2.67;;
21810;SDS011;11067;48.788;9.208;2023-11-19T01:29:11;4.00;;;2.80;;
21810;SDS011;11067;48.788;9.208;2023-11-19T01:31:39;3.25;;;2.67;;
21810;SDS011;11067;48.788;9.208;2023-11-19T01:34:07;3.85;;;3.00;;
21810;SDS011;11067;48.788;9.208;2023-11-19T01:36:33;4.53;;;3.00;;
21810;SDS011;11067;48.788;9.208;2023-11-19T01:38:59;4.43;;;3.15;;
21810;SDS011;11067;48.788;9.208;2023-11-19T01:41:25;4.45;;;3.45;;
21810;SDS011;11067;48.788;9.208;2023-11-19T01:43:50;4.40;;;3.27;;
21810;SDS011;11067;48.788;9.208;2023-11-19T01:46:16;5.30;;;3.23;;
21810;SDS011;11067;48.788;9.208;2023-11-19T01:48:45;4.57;;;3.27;;
21810;SDS011;11067;48.788;9.208;2023-11-19T01:51:14;4.57;;;3.07;;
21810;SDS011;11067;48.788;9.208;2023-11-19T01:53:41;3.80;;;2.50;;
21810;SDS011;11067;48.788;9.208;2023-11-19T01:56:09;4.47;;;3.10;;
21810;SDS011;11067;48.788;9.208;2023-11-19T01:58:36;3.55;;;2.78;;
21810;SDS011;11067;48.788;9.208;2023-11-19T02:01:03;3.92;;;2.50;;
21810;SDS011;11067;48.788;9.208;2023-11-19T02:03:33;5.35;;;2.50;;
21810;SDS011;11067;48.788;9.208;2023-11-19T02:05:59;3.63;;;2.67;;
21810;SDS011;11067;48.788;9.208;2023-11-19T02:08:25;3.83;;;2.30;;
21810;SDS011;11067;48.788;9.208;2023-11-19T02:10:51;3.08;;;2.10;;
21810;SDS011;11067;48.788;9.208;2023-11-19T02:13:18;4.75;;;2.75;;
21810;SDS011;11067;48.788;9.208;2023-11-19T02:15:43;2.40;;;2.20;;
21810;SDS011;11067;48.788;9.208;2023-11-19T02:18:24;2.70;;;2.40;;
21810;SDS011;11067;48.788;9.208;2023-11-19T02:20:55;2.38;;;2.15;;
21810;SDS011;11067;48.788;9.208;2023-11-19T02:23:27;3.22;;;2.35;;
21810;SDS011;11067;48.788;9.208;2023-11-19T02:26:00;3.45;;;2.22;;
21810;SDS011;11067;48.788;9.208;2023-11-19T02:28:27;2.67;;;1.92;;
21810;SDS011;11067;48.788;9.208;2023-11-19T02:30:53;3.10;;;2.10;;
21810;SDS011;11067;48.788;9.208;2023-11-19T02:33:18;2.57;;;1.83;;
21810;SDS011;11067;48.788;9.208;2023-11-19T02:35:44;2.43;;;2.20;;
21810;SDS011;11067;48.788;9.208;2023-11-19T02:38:09;3.00;;;2.17;;
21810;SDS011;11067;48.788;9.208;2023-11-19T02:40:35;2.80;;;2.07;;
21810;SDS011;11067;48.788;9.208;2023-11-19T02:43:01;2.53;;;2.00;;
21810;SDS011;11067;48.788;9.208;2023-11-19T02:45:30;1.92;;;1.83;;
21810;SDS011;11067;48.788;9.208;2023-11-19T02:47:56;3.03;;;2.10;;
21810;SDS011;11067;48.788;9.208;2023-11-19T02:50:21;2.05;;;1.70;;
21810;SDS011;11067;48.788;9.208;2023-11-19T02:52:51;2.10;;;1.40;;
21810;SDS011;11067;48.788;9.208;2023-11-19T02:55:18;2.05;;;1.83;;
21810;SDS011;11067;48.788;9.208;2023-11-19T02:57:44;3.07;;;1.90;;
21810;SDS011;11067;48.788;9.208;2023-11-19T03:02:45;2.60;;;1.67;;
21810;SDS011;11067;48.788;9.208;2023-11-19T03:05:42;2.75;;;1.88;;
21810;SDS011;11067;48.788;9.208;2023-11-19T03:08:09;3.85;;;2.08;;
21810;SDS011;11067;48.788;9.208;2023-11-19T03:10:35;2.00;;;1.73;;
21810;SDS011;11067;48.788;9.208;2023-11-19T03:13:01;3.53;;;2.03;;
21810;SDS011;11067;48.788;9.208;2023-11-19T03:15:27;3.43;;;2.00;;
21810;SDS011;11067;48.788;9.208;2023-11-19T03:17:52;2.97;;;1.87;;
21810;SDS011;11067;48.788;9.208;2023-11-19T03:20:19;2.30;;;1.80;;
21810;SDS011;11067;48.788;9.208;2023-11-19T03:22:45;3.38;;;2.08;;
21810;SDS011;11067;48.788;9.208;2023-11-19T03:25:11;3.33;;;1.60;;
21810;SDS011;11067;48.788;9.208;2023-11-19T03:27:38;2.20;;;1.70;;
21810;SDS011;11067;48.788;9.208;2023-11-19T03:30:05;3.42;;;1.70;;
21810;SDS011;11067;48.788;9.208;2023-11-19T03:32:31;1.85;;;1.70;;
21810;SDS011;11067;48.788;9.208;2023-11-19T03:34:57;2.77;;;1.97;;
21810;SDS011;11067;48.788;9.208;2023-11-19T03:37:24;3.22;;;1.90;;
21810;SDS011;11067;48.788;9.208;2023-11-19T03:39:51;3.45;;;1.73;;
21810;SDS011;11067;48.788;9.208;2023-11-19T03:42:18;3.63;;;2.23;;
21810;SDS011;11067;48.788;9.208;2023-11-19T03:44:45;3.33;;;1.85;;
21810;SDS011;11067;48.788;9.208;2023-11-19T03:47:11;2.42;;;1.98;;
21810;SDS011;11067;48.788;9.208;2023-11-19T03:49:36;3.08;;;1.92;;
21810;SDS011;11067;48.788;9.208;2023-11-19T03:52:02;3.83;;;2.03;;
21810;SDS011;11067;48.788;9.208;2023-11-19T03:54:28;3.43;;;1.87;;
21810;SDS011;11067;48.788;9.208;2023-11-19T03:56:53;3.17;;;1.80;;
21810;SDS011;11067;48.788;9.208;2023-11-19T03:59:19;1.90;;;1.50;;
21810;SDS011;11067;48.788;9.208;2023-11-19T04:01:45;1.47;;;1.30;;
21810;SDS011;11067;48.788;9.208;2023-11-19T04:04:11;3.57;;;1.50;;
21810;SDS011;11067;48.788;9.208;2023-11-19T04:06:37;1.27;;;1.00;;
21810;SDS011;11067;48.788;9.208;2023-11-19T04:09:02;1.10;;;1.00;;
21810;SDS011;11067;48.788;9.208;2023-11-19T04:11:30;1.23;;;1.08;;
21810;SDS011;11067;48.788;9.208;2023-11-19T04:13:55;1.63;;;0.80;;
21810;SDS011;11067;48.788;9.208;2023-11-19T04:16:25;1.17;;;0.77;;
21810;SDS011;11067;48.788;9.208;2023-11-19T04:18:53;1.35;;;0.65;;
21810;SDS011;11067;48.788;9.208;2023-11-19T04:21:18;0.70;;;0.47;;
21810;SDS011;11067;48.788;9.208;2023-11-19T04:23:44;0.60;;;0.60;;
21810;SDS011;11067;48.788;9.208;2023-11-19T04:26:09;1.50;;;0.60;;
21810;SDS011;11067;48.788;9.208;2023-11-19T04:28:35;1.10;;;0.50;;
21810;SDS011;11067;48.788;9.208;2023-11-19T04:31:01;0.33;;;0.33;;
21810;SDS011;11067;48.788;9.208;2023-11-19T04:33:28;0.60;;;0.30;;
21810;SDS011;11067;48.788;9.208;2023-11-19T04:35:54;0.30;;;0.30;;
21810;SDS011;11067;48.788;9.208;2023-11-19T04:38:19;0.30;;;0.30;;
21810;SDS011;11067;48.788;9.208;2023-11-19T04:40:45;0.40;;;0.30;;
21810;SDS011;11067;48.788;9.208;2023-11-19T04:43:10;0.50;;;0.30;;
21810;SDS011;11067;48.788;9.208;2023-11-19T04:45:36;0.50;;;0.40;;
21810;SDS011;11067;48.788;9.208;2023-11-19T04:48:01;0.80;;;0.10;;
21810;SDS011;11067;48.788;9.208;2023-11-19T04:50:27;0.30;;;0.30;;
21810;SDS011;11067;48.788;9.208;2023-11-19T04:52:53;0.13;;;0.13;;
21810;SDS011;11067;48.788;9.208;2023-11-19T04:55:18;0.17;;;0.17;;
21810;SDS011;11067;48.788;9.208;2023-11-19T04:57:44;0.30;;;0.20;;
21810;SDS011;11067;48.788;9.208;2023-11-19T05:00:10;0.13;;;0.10;;
21810;SDS011;11067;48.788;9.208;2023-11-19T05:02:36;0.10;;;0.10;;
21810;SDS011;11067;48.788;9.208;2023-11-19T05:05:02;0.50;;;0.20;;
21810;SDS011;11067;48.788;9.208;2023-11-19T05:07:29;0.28;;;0.20;;
21810;SDS011;11067;48.788;9.208;2023-11-19T05:09:55;0.15;;;0.10;;
21810;SDS011;11067;48.788;9.208;2023-11-19T05:12:20;0.20;;;0.20;;
21810;SDS011;11067;48.788;9.208;2023-11-19T05:14:46;0.20;;;0.10;;
21810;SDS011;11067;48.788;9.208;2023-11-19T05:17:15;0.40;;;0.17;;
21810;SDS011;11067;48.788;9.208;2023-11-19T05:19:43;0.10;;;0.10;;
21810;SDS011;11067;48.788;9.208;2023-11-19T05:22:08;0.10;;;0.10;;
21810;SDS011;11067;48.788;9.208;2023-11-19T05:24:34;0.20;;;0.20;;
21810;SDS011;11067;48.788;9.208;2023-11-19T05:27:00;0.10;;;0.10;;
21810;SDS011;11067;48.788;9.208;2023-11-19T05:29:26;0.40;;;0.10;;
21810;SDS011;11067;48.788;9.208;2023-11-19T05:31:52;0.30;;;0.20;;
21810;SDS011;11067;48.788;9.208;2023-11-19T05:34:19;0.30;;;0.30;;
21810;SDS011;11067;48.788;9.208;2023-11-19T05:36:45;0.30;;;0.30;;
21810;SDS011;11067;48.788;9.208;2023-11-19T05:39:11;0.55;;;0.40;;
21810;SDS011;11067;48.788;9.208;2023-11-19T05:41:36;0.30;;;0.30;;
21810;SDS011;11067;48.788;9.208;2023-11-19T05:44:02;0.20;;;0.20;;
21810;SDS011;11067;48.788;9.208;2023-11-19T05:46:27;0.32;;;0.20;;
21810;SDS011;11067;48.788;9.208;2023-11-19T05:48:53;0.75;;;0.43;;
21810;SDS011;11067;48.788;9.208;2023-11-19T05:51:19;0.17;;;0.17;;
21810;SDS011;11067;48.788;9.208;2023-11-19T05:53:44;0.20;;;0.10;;
21810;SDS011;11067;48.788;9.208;2023-11-19T05:56:10;0.10;;;0.10;;
21810;SDS011;11067;48.788;9.208;2023-11-19T05:58:36;0.47;;;0.20;;
21810;SDS011;11067;48.788;9.208;2023-11-19T06:01:04;0.15;;;0.15;;
21810;SDS011;11067;48.788;9.208;2023-11-19T06:03:32;0.20;;;0.20;;
21810;SDS011;11067;48.788;9.208;2023-11-19T06:05:58;0.20;;;0.20;;
21810;SDS011;11067;48.788;9.208;2023-11-19T06:08:23;0.10;;;0.10;;
21810;SDS011;11067;48.788;9.208;2023-11-19T06:10:52;0.10;;;0.10;;
21810;SDS011;11067;48.788;9.208;2023-11-19T06:13:17;0.13;;;0.13;;
21810;SDS011;11067;48.788;9.208;2023-11-19T06:15:43;0.17;;;0.17;;
21810;SDS011;11067;48.788;9.208;2023-11-19T06:18:09;0.20;;;0.20;;
21810;SDS011;11067;48.788;9.208;2023-11-19T06:20:36;0.70;;;0.20;;
21810;SDS011;11067;48.788;9.208;2023-11-19T06:23:02;1.52;;;0.50;;
21810;SDS011;11067;48.788;9.208;2023-11-19T06:25:28;0.30;;;0.30;;
21810;SDS011;11067;48.788;9.208;2023-11-19T06:27:53;0.17;;;0.17;;
21810;SDS011;11067;48.788;9.208;2023-11-19T06:30:19;0.20;;;0.20;;
21810;SDS011;11067;48.788;9.208;2023-11-19T06:32:45;0.95;;;0.30;;
21810;SDS011;11067;48.788;9.208;2023-11-19T06:35:11;0.20;;;0.17;;
21810;SDS011;11067;48.788;9.208;2023-11-19T06:37:39;0.30;;;0.20;;
21810;SDS011;11067;48.788;9.208;2023-11-19T06:40:05;0.30;;;0.30;;
21810;SDS011;11067;48.788;9.208;2023-11-19T06:42:34;4.40;;;0.47;;
21810;SDS011;11067;48.788;9.208;2023-11-19T06:44:59;0.40;;;0.40;;
21810;SDS011;11067;48.788;9.208;2023-11-19T06:47:26;0.40;;;0.30;;
21810;SDS011;11067;48.788;9.208;2023-11-19T06:49:52;1.00;;;0.60;;
21810;SDS011;11067;48.788;9.208;2023-11-19T06:52:18;0.43;;;0.43;;
21810;SDS011;11067;48.788;9.208;2023-11-19T06:54:44;0.70;;;0.47;;
21810;SDS011;11067;48.788;9.208;2023-11-19T06:57:10;0.30;;;0.30;;
21810;SDS011;11067;48.788;9.208;2023-11-19T06:59:36;0.68;;;0.30;;
21810;SDS011;11067;48.788;9.208;2023-11-19T07:02:02;0.57;;;0.30;;
21810;SDS011;11067;48.788;9.208;2023-11-19T07:04:28;0.52;;;0.43;;
21810;SDS011;11067;48.788;9.208;2023-11-19T07:06:53;0.37;;;0.30;;
21810;SDS011;11067;48.788;9.208;2023-11-19T07:09:19;0.30;;;0.30;;
21810;SDS011;11067;48.788;9.208;2023-11-19T07:11:44;0.20;;;0.20;;
21810;SDS011;11067;48.788;9.208;2023-11-19T07:14:10;0.38;;;0.38;;
21810;SDS011;11067;48.788;9.208;2023-11-19T07:16:36;0.50;;;0.30;;
21810;SDS011;11067;48.788;9.208;2023-11-19T07:19:02;0.20;;;0.20;;
21810;SDS011;11067;48.788;9.208;2023-11-19T07:21:28;0.40;;;0.40;;
21810;SDS011;11067;48.788;9.208;2023-11-19T07:23:54;0.30;;;0.30;;
21810;SDS011;11067;48.788;9.208;2023-11-19T07:26:20;0.52;;;0.50;;
21810;SDS011;11067;48.788;9.208;2023-11-19T07:28:47;0.45;;;0.40;;
21810;SDS011;11067;48.788;9.208;2023-11-19T07:31:13;0.30;;;0.30;;
21810;SDS011;11067;48.788;9.208;2023-11-19T07:33:39;0.43;;;0.40;;
21810;SDS011;11067;48.788;9.208;2023-11-19T07:36:07;0.40;;;0.40;;
21810;SDS011;11067;48.788;9.208;2023-11-19T07:38:33;1.10;;;0.60;;
21810;SDS011;11067;48.788;9.208;2023-11-19T07:40:59;1.20;;;0.30;;
21810;SDS011;11067;48.788;9.208;2023-11-19T07:43:24;0.30;;;0.30;;
21810;SDS011;11067;48.788;9.208;2023-11-19T07:45:50;0.33;;;0.30;;
21810;SDS011;11067;48.788;9.208;2023-11-19T07:48:15;0.50;;;0.30;;
21810;SDS011;11067;48.788;9.208;2023-11-19T07:50:43;0.40;;;0.40;;
21810;SDS011;11067;48.788;9.208;2023-11-19T07:53:08;0.23;;;0.23;;
21810;SDS011;11067;48.788;9.208;2023-11-19T07:55:34;0.60;;;0.30;;
21810;SDS011;11067;48.788;9.208;2023-11-19T07:57:59;0.47;;;0.30;;
21810;SDS011;11067;48.788;9.208;2023-11-19T08:00:26;0.27;;;0.27;;
21810;SDS011;11067;48.788;9.208;2023-11-19T08:02:51;0.97;;;0.37;;
21810;SDS011;11067;48.788;9.208;2023-11-19T08:05:17;0.30;;;0.30;;
21810;SDS011;11067;48.788;9.208;2023-11-19T08:07:42;0.33;;;0.33;;
21810;SDS011;11067;48.788;9.208;2023-11-19T08:10:08;0.27;;;0.27;;
21810;SDS011;11067;48.788;9.208;2023-11-19T08:12:37;0.30;;;0.30;;
21810;SDS011;11067;48.788;9.208;2023-11-19T08:15:03;0.50;;;0.30;;
21810;SDS011;11067;48.788;9.208;2023-11-19T08:17:29;0.70;;;0.30;;
21810;SDS011;11067;48.788;9.208;2023-11-19T08:19:55;1.00;;;0.40;;
21810;SDS011;11067;48.788;9.208;2023-11-19T08:22:21;0.20;;;0.20;;
21810;SDS011;11067;48.788;9.208;2023-11-19T08:24:47;0.38;;;0.38;;
21810;SDS011;11067;48.788;9.208;2023-11-19T08:27:13;0.20;;;0.20;;
21810;SDS011;11067;48.788;9.208;2023-11-19T08:29:39;2.00;;;0.40;;
21810;SDS011;11067;48.788;9.208;2023-11-19T08:32:05;1.30;;;0.80;;
21810;SDS011;11067;48.788;9.208;2023-11-19T08:34:31;0.30;;;0.30;;
21810;SDS011;11067;48.788;9.208;2023-11-19T08:36:57;0.30;;;0.30;;
21810;SDS011;11067;48.788;9.208;2023-11-19T08:39:23;2.83;;;0.38;;
21810;SDS011;11067;48.788;9.208;2023-11-19T08:41:49;0.57;;;0.47;;
21810;SDS011;11067;48.788;9.208;2023-11-19T08:44:15;1.00;;;0.67;;
21810;SDS011;11067;48.788;9.208;2023-11-19T08:46:48;0.80;;;0.60;;
21810;SDS011;11067;48.788;9.208;2023-11-19T08:49:14;1.20;;;0.60;;
21810;SDS011;11067;48.788;9.208;2023-11-19T08:51:40;1.27;;;0.97;;
21810;SDS011;11067;48.788;9.208;2023-11-19T08:54:06;0.50;;;0.40;;
21810;SDS011;11067;48.788;9.208;2023-11-19T08:56:32;0.60;;;0.45;;
21810;SDS011;11067;48.788;9.208;2023-11-19T08:58:59;0.30;;;0.30;;
21810;SDS011;11067;48.788;9.208;2023-11-19T09:01:25;0.90;;;0.40;;
21810;SDS011;11067;48.788;9.208;2023-11-19T09:03:50;0.40;;;0.30;;
21810;SDS011;11067;48.788;9.208;2023-11-19T09:06:17;0.40;;;0.30;;
21810;SDS011;11067;48.788;9.208;2023-11-19T09:08:42;0.60;;;0.60;;
21810;SDS011;11067;48.788;9.208;2023-11-19T09:11:08;0.80;;;0.47;;
21810;SDS011;11067;48.788;9.208;2023-11-19T09:13:34;0.60;;;0.50;;
21810;SDS011;11067;48.788;9.208;2023-11-19T09:16:00;0.60;;;0.57;;
21810;SDS011;11067;48.788;9.208;2023-11-19T09:18:28;1.23;;;0.50;;
21810;SDS011;11067;48.788;9.208;2023-11-19T09:20:54;1.15;;;0.50;;
21810;SDS011;11067;48.788;9.208;2023-11-19T09:23:20;0.47;;;0.40;;
21810;SDS011;11067;48.788;9.208;2023-11-19T09:25:45;0.63;;;0.43;;
21810;SDS011;11067;48.788;9.208;2023-11-19T09:28:11;0.47;;;0.47;;
21810;SDS011;11067;48.788;9.208;2023-11-19T09:30:38;0.30;;;0.30;;
21810;SDS011;11067;48.788;9.208;2023-11-19T09:33:03;0.37;;;0.30;;
21810;SDS011;11067;48.788;9.208;2023-11-19T09:35:29;0.70;;;0.50;;
21810;SDS011;11067;48.788;9.208;2023-11-19T09:37:54;0.47;;;0.40;;
21810;SDS011;11067;48.788;9.208;2023-11-19T09:40:20;0.70;;;0.50;;
21810;SDS011;11067;48.788;9.208;2023-11-19T09:42:47;1.03;;;0.60;;
21810;SDS011;11067;48.788;9.208;2023-11-19T09:45:13;0.75;;;0.60;;
21810;SDS011;11067;48.788;9.208;2023-11-19T09:47:42;1.15;;;0.60;;
21810;SDS011;11067;48.788;9.208;2023-11-19T09:50:16;1.40;;;0.57;;
21810;SDS011;11067;48.788;9.208;2023-11-19T09:52:44;0.73;;;0.60;;
21810;SDS011;11067;48.788;9.208;2023-11-19T09:55:10;1.25;;;0.60;;
21810;SDS011;11067;48.788;9.208;2023-11-19T09:57:36;1.00;;;0.60;;
21810;SDS011;11067;48.788;9.208;2023-11-19T10:00:05;1.55;;;0.68;;
21810;SDS011;11067;48.788;9.208;2023-11-19T10:02:33;0.85;;;0.47;;
21810;SDS011;11067;48.788;9.208;2023-11-19T10:05:01;1.20;;;0.50;;
21810;SDS011;11067;48.788;9.208;2023-11-19T10:07:35;0.75;;;0.60;;
21810;SDS011;11067;48.788;9.208;2023-11-19T10:10:03;1.85;;;0.60;;
21810;SDS011;11067;48.788;9.208;2023-11-19T10:12:29;0.90;;;0.70;;
21810;SDS011;11067;48.788;9.208;2023-11-19T10:14:56;1.30;;;0.60;;
21810;SDS011;11067;48.788;9.208;2023-11-19T10:17:27;3.00;;;0.80;;
21810;SDS011;11067;48.788;9.208;2023-11-19T10:19:54;0.88;;;0.60;;
21810;SDS011;11067;48.788;9.208;2023-11-19T10:22:20;1.30;;;0.60;;
21810;SDS011;11067;48.788;9.208;2023-11-19T10:24:48;2.03;;;0.50;;
21810;SDS011;11067;48.788;9.208;2023-11-19T10:27:14;0.60;;;0.60;;
21810;SDS011;11067;48.788;9.208;2023-11-19T10:29:40;1.27;;;0.52;;
21810;SDS011;11067;48.788;9.208;2023-11-19T10:32:05;1.92;;;0.60;;
21810;SDS011;11067;48.788;9.208;2023-11-19T10:34:31;1.58;;;0.80;;
21810;SDS011;11067;48.788;9.208;2023-11-19T10:36:56;2.00;;;0.70;;
21810;SDS011;11067;48.788;9.208;2023-11-19T10:39:22;1.70;;;0.90;;
21810;SDS011;11067;48.788;9.208;2023-11-19T10:41:49;0.60;;;0.60;;
21810;SDS011;11067;48.788;9.208;2023-11-19T10:44:33;0.73;;;0.60;;
21810;SDS011;11067;48.788;9.208;2023-11-19T10:47:05;1.40;;;0.70;;
21810;SDS011;11067;48.788;9.208;2023-11-19T10:49:32;2.20;;;0.80;;
21810;SDS011;11067;48.788;9.208;2023-11-19T10:52:00;2.00;;;0.65;;
21810;SDS011;11067;48.788;9.208;2023-11-19T10:54:26;0.87;;;0.60;;
21810;SDS011;11067;48.788;9.208;2023-11-19T10:56:58;1.00;;;0.70;;
21810;SDS011;11067;48.788;9.208;2023-11-19T10:59:27;1.30;;;0.50;;
21810;SDS011;11067;48.788;9.208;2023-11-19T11:01:55;0.63;;;0.55;;
21810;SDS011;11067;48.788;9.208;2023-11-19T11:04:24;1.38;;;0.68;;
21810;SDS011;11067;48.788;9.208;2023-11-19T11:06:51;1.80;;;0.50;;
21810;SDS011;11067;48.788;9.208;2023-11-19T11:09:19;1.30;;;0.60;;
21810;SDS011;11067;48.788;9.208;2023-11-19T11:11:46;1.63;;;0.60;;
21810;SDS011;11067;48.788;9.208;2023-11-19T11:14:13;1.08;;;0.57;;
21810;SDS011;11067;48.788;9.208;2023-11-19T11:16:44;2.05;;;0.52;;
21810;SDS011;11067;48.788;9.208;2023-11-19T11:19:13;1.83;;;0.70;;
21810;SDS011;11067;48.788;9.208;2023-11-19T11:21:41;1.05;;;0.47;;
21810;SDS011;11067;48.788;9.208;2023-11-19T11:27:19;1.27;;;0.60;;
21810;SDS011;11067;48.788;9.208;2023-11-19T11:36:17;2.70;;;0.63;;
21810;SDS011;11067;48.788;9.208;2023-11-19T11:38:16;1.60;;;0.60;;
21810;SDS011;11067;48.788;9.208;2023-11-19T11:43:48;1.00;;;0.57;;
21810;SDS011;11067;48.788;9.208;2023-11-19T11:49:05;1.03;;;0.60;;
21810;SDS011;11067;48.788;9.208;2023-11-19T11:57:00;1.50;;;0.63;;
21810;SDS011;11067;48.788;9.208;2023-11-19T12:02:10;1.27;;;1.00;;
21810;SDS011;11067;48.788;9.208;2023-11-19T12:04:38;0.60;;;0.50;;
21810;SDS011;11067;48.788;9.208;2023-11-19T12:07:08;2.25;;;0.68;;
21810;SDS011;11067;48.788;9.208;2023-11-19T12:09:40;2.05;;;1.20;;
21810;SDS011;11067;48.788;9.208;2023-11-19T12:15:00;1.40;;;0.80;;
21810;SDS011;11067;48.788;9.208;2023-11-19T12:20:01;1.00;;;0.90;;
21810;SDS011;11067;48.788;9.208;2023-11-19T12:22:31;3.25;;;1.00;;
21810;SDS011;11067;48.788;9.208;2023-11-19T12:24:57;2.53;;;0.97;;
21810;SDS011;11067;48.788;9.208;2023-11-19T12:27:23;4.15;;;1.23;;
21810;SDS011;11067;48.788;9.208;2023-11-19T12:29:49;1.55;;;0.82;;
21810;SDS011;11067;48.788;9.208;2023-11-19T12:32:15;0.75;;;0.60;;
21810;SDS011;11067;48.788;9.208;2023-11-19T12:34:41;0.80;;;0.63;;
21810;SDS011;11067;48.788;9.208;2023-11-19T12:37:07;0.83;;;0.70;;
21810;SDS011;11067;48.788;9.208;2023-11-19T12:39:34;1.65;;;0.70;;
21810;SDS011;11067;48.788;9.208;2023-11-19T12:42:00;1.23;;;0.60;;
21810;SDS011;11067;48.788;9.208;2023-11-19T12:44:26;1.02;;;0.88;;
21810;SDS011;11067;48.788;9.208;2023-11-19T12:47:01;2.07;;;0.90;;
21810;SDS011;11067;48.788;9.208;2023-11-19T12:49:36;0.85;;;0.70;;
21810;SDS011;11067;48.788;9.208;2023-11-19T12:52:02;3.57;;;1.00;;
21810;SDS011;11067;48.788;9.208;2023-11-19T12:54:36;1.30;;;0.60;;
21810;SDS011;11067;48.788;9.208;2023-11-19T12:57:02;0.47;;;0.38;;
21810;SDS011;11067;48.788;9.208;2023-11-19T12:59:30;0.73;;;0.60;;
21810;SDS011;11067;48.788;9.208;2023-11-19T13:01:59;2.33;;;0.65;;
21810;SDS011;11067;48.788;9.208;2023-11-19T13:04:29;1.80;;;0.60;;
21810;SDS011;11067;48.788;9.208;2023-11-19T13:07:01;1.33;;;0.70;;
21810;SDS011;11067;48.788;9.208;2023-11-19T13:09:29;0.65;;;0.60;;
21810;SDS011;11067;48.788;9.208;2023-11-19T13:11:55;2.13;;;0.70;;
21810;SDS011;11067;48.788;9.208;2023-11-19T13:14:35;1.45;;;0.60;;
21810;SDS011;11067;48.788;9.208;2023-11-19T13:17:03;1.95;;;0.52;;
21810;SDS011;11067;48.788;9.208;2023-11-19T13:19:28;1.60;;;0.70;;
21810;SDS011;11067;48.788;9.208;2023-11-19T13:21:54;1.52;;;0.60;;
21810;SDS011;11067;48.788;9.208;2023-11-19T13:24:20;1.03;;;0.70;;
21810;SDS011;11067;48.788;9.208;2023-11-19T13:26:45;0.68;;;0.52;;
21810;SDS011;11067;48.788;9.208;2023-11-19T13:29:11;0.80;;;0.50;;
21810;SDS011;11067;48.788;9.208;2023-11-19T13:31:37;2.28;;;0.73;;
21810;SDS011;11067;48.788;9.208;2023-11-19T13:34:03;0.73;;;0.60;;
21810;SDS011;11067;48.788;9.208;2023-11-19T13:36:28;1.20;;;0.80;;
21810;SDS011;11067;48.788;9.208;2023-11-19T13:38:54;2.40;;;0.80;;
21810;SDS011;11067;48.788;9.208;2023-11-19T13:41:24;7.43;;;2.37;;
21810;SDS011;11067;48.788;9.208;2023-11-19T13:43:50;7.88;;;2.53;;
21810;SDS011;11067;48.788;9.208;2023-11-19T13:46:16;4.10;;;1.35;;
21810;SDS011;11067;48.788;9.208;2023-11-19T13:48:42;1.27;;;0.52;;
21810;SDS011;11067;48.788;9.208;2023-11-19T13:51:07;2.23;;;0.80;;
21810;SDS011;11067;48.788;9.208;2023-11-19T13:53:34;1.50;;;0.90;;
21810;SDS011;11067;48.788;9.208;2023-11-19T13:56:00;2.50;;;0.70;;
21810;SDS011;11067;48.788;9.208;2023-11-19T13:58:26;1.50;;;1.27;;
21810;SDS011;11067;48.788;9.208;2023-11-19T14:00:51;1.30;;;0.88;;
21810;SDS011;11067;48.788;9.208;2023-11-19T14:03:17;2.97;;;0.87;;
21810;SDS011;11067;48.788;9.208;2023-11-19T14:05:43;1.27;;;0.90;;
21810;SDS011;11067;48.788;9.208;2023-11-19T14:08:08;2.05;;;0.57;;
21810;SDS011;11067;48.788;9.208;2023-11-19T14:10:37;1.90;;;0.50;;
21810;SDS011;11067;48.788;9.208;2023-11-19T14:13:06;1.97;;;0.70;;
21810;SDS011;11067;48.788;9.208;2023-11-19T14:15:32;2.55;;;0.90;;
21810;SDS011;11067;48.788;9.208;2023-11-19T14:17:58;0.63;;;0.50;;
21810;SDS011;11067;48.788;9.208;2023-11-19T14:20:24;1.47;;;0.60;;
21810;SDS011;11067;48.788;9.208;2023-11-19T14:22:50;2.00;;;0.68;;
21810;SDS011;11067;48.788;9.208;2023-11-19T14:25:17;2.40;;;0.80;;
21810;SDS011;11067;48.788;9.208;2023-11-19T14:27:43;2.25;;;1.02;;
21810;SDS011;11067;48.788;9.208;2023-11-19T14:30:11;0.97;;;0.70;;
21810;SDS011;11067;48.788;9.208;2023-11-19T14:32:41;1.15;;;0.68;;
21810;SDS011;11067;48.788;9.208;2023-11-19T14:35:08;1.85;;;0.68;;
21810;SDS011;11067;48.788;9.208;2023-11-19T14:37:34;0.70;;;0.60;;
21810;SDS011;11067;48.788;9.208;2023-11-19T14:40:00;0.80;;;0.80;;
21810;SDS011;11067;48.788;9.208;2023-11-19T14:42:29;1.70;;;0.77;;
21810;SDS011;11067;48.788;9.208;2023-11-19T14:44:54;2.60;;;0.95;;
21810;SDS011;11067;48.788;9.208;2023-11-19T14:47:23;2.00;;;1.02;;
21810;SDS011;11067;48.788;9.208;2023-11-19T14:49:49;0.80;;;0.65;;
21810;SDS011;11067;48.788;9.208;2023-11-19T14:52:15;1.90;;;0.82;;
21810;SDS011;11067;48.788;9.208;2023-11-19T14:54:41;1.33;;;0.63;;
21810;SDS011;11067;48.788;9.208;2023-11-19T14:57:06;3.30;;;0.60;;
21810;SDS011;11067;48.788;9.208;2023-11-19T14:59:35;1.92;;;0.98;;
21810;SDS011;11067;48.788;9.208;2023-11-19T15:02:01;1.48;;;0.73;;
21810;SDS011;11067;48.788;9.208;2023-11-19T15:04:27;0.83;;;0.63;;
21810;SDS011;11067;48.788;9.208;2023-11-19T15:06:56;1.38;;;0.90;;
21810;SDS011;11067;48.788;9.208;2023-11-19T15:09:21;2.70;;;1.00;;
21810;SDS011;11067;48.788;9.208;2023-11-19T15:11:47;2.70;;;1.23;;
21810;SDS011;11067;48.788;9.208;2023-11-19T15:14:13;2.80;;;1.20;;
21810;SDS011;11067;48.788;9.208;2023-11-19T15:16:41;1.50;;;0.90;;